sensor_id;sensor_type;location;lat;lon;timestamp;P1;durP1;ratioP1;P2;durP2;ratioP2
61393;SDS011;48555;50.952;-0.120;2024-01-11T00:01:57;19.42;;;11.35;;
61393;SDS011;48555;50.952;-0.120;2024-01-11T00:04:23;19.80;;;11.98;;
61393;SDS011;48555;50.952;-0.120;2024-01-11T00:06:49;19.13;;;11.60;;
61393;SDS011;48555;50.952;-0.120;2024-01-11T00:09:15;16.38;;;9.82;;
61393;SDS011;48555;50.952;-0.120;2024-01-11T00:11:40;19.63;;;11.70;;
61393;SDS011;48555;50.952;-0.120;2024-01-11T00:14:06;21.25;;;11.82;;
61393;SDS011;48555;50.952;-0.120;2024-01-11T00:16:31;19.20;;;11.65;;
61393;SDS011;48555;50.952;-0.120;2024-01-11T00:18:56;17.67;;;11.45;;
61393;SDS011;48555;50.952;-0.120;2024-01-11T00:21:22;19.85;;;11.88;;
61393;SDS011;48555;50.952;-0.120;2024-01-11T00:23:48;20.10;;;11.52;;
61393;SDS011;48555;50.952;-0.120;2024-01-11T00:26:14;22.67;;;11.90;;
61393;SDS011;48555;50.952;-0.120;2024-01-11T00:28:39;20.92;;;11.70;;
61393;SDS011;48555;50.952;-0.120;2024-01-11T00:31:05;19.83;;;11.73;;
61393;SDS011;48555;50.952;-0.120;2024-01-11T00:33:30;20.88;;;11.13;;
61393;SDS011;48555;50.952;-0.120;2024-01-11T00:35:56;20.10;;;11.38;;
61393;SDS011;48555;50.952;-0.120;2024-01-11T00:38:21;17.17;;;9.68;;
61393;SDS011;48555;50.952;-0.120;2024-01-11T00:40:46;17.38;;;10.95;;
61393;SDS011;48555;50.952;-0.120;2024-01-11T00:43:12;18.90;;;10.93;;
61393;SDS011;48555;50.952;-0.120;2024-01-11T00:45:37;19.08;;;10.25;;
61393;SDS011;48555;50.952;-0.120;2024-01-11T00:48:03;17.83;;;9.82;;
61393;SDS011;48555;50.952;-0.120;2024-01-11T00:50:29;17.25;;;10.07;;
61393;SDS011;48555;50.952;-0.120;2024-01-11T00:52:55;16.85;;;9.77;;
61393;SDS011;48555;50.952;-0.120;2024-01-11T00:55:20;18.17;;;11.10;;
61393;SDS011;48555;50.952;-0.120;2024-01-11T00:57:45;19.58;;;11.00;;
61393;SDS011;48555;50.952;-0.120;2024-01-11T01:00:11;18.70;;;10.45;;
61393;SDS011;48555;50.952;-0.120;2024-01-11T01:02:40;17.48;;;9.88;;
61393;SDS011;48555;50.952;-0.120;2024-01-11T01:05:05;15.80;;;10.50;;
61393;SDS011;48555;50.952;-0.120;2024-01-11T01:07:31;19.27;;;11.20;;
61393;SDS011;48555;50.952;-0.120;2024-01-11T01:09:57;19.50;;;10.52;;
61393;SDS011;48555;50.952;-0.120;2024-01-11T01:12:22;20.75;;;11.25;;
61393;SDS011;48555;50.952;-0.120;2024-01-11T01:14:47;17.58;;;10.20;;
61393;SDS011;48555;50.952;-0.120;2024-01-11T01:17:13;15.35;;;9.10;;
61393;SDS011;48555;50.952;-0.120;2024-01-11T01:19:38;18.88;;;10.60;;
61393;SDS011;48555;50.952;-0.120;2024-01-11T01:22:03;19.33;;;11.50;;
61393;SDS011;48555;50.952;-0.120;2024-01-11T01:24:29;18.40;;;10.88;;
61393;SDS011;48555;50.952;-0.120;2024-01-11T01:26:56;18.20;;;10.23;;
61393;SDS011;48555;50.952;-0.120;2024-01-11T01:29:21;19.05;;;10.85;;
61393;SDS011;48555;50.952;-0.120;2024-01-11T01:31:46;14.57;;;10.20;;
61393;SDS011;48555;50.952;-0.120;2024-01-11T01:34:12;20.48;;;10.23;;
61393;SDS011;48555;50.952;-0.120;2024-01-11T01:36:37;19.70;;;10.77;;
61393;SDS011;48555;50.952;-0.120;2024-01-11T01:39:02;16.20;;;10.35;;
61393;SDS011;48555;50.952;-0.120;2024-01-11T01:41:28;18.83;;;11.05;;
61393;SDS011;48555;50.952;-0.120;2024-01-11T01:43:53;20.17;;;11.50;;
61393;SDS011;48555;50.952;-0.120;2024-01-11T01:46:19;19.92;;;11.48;;
61393;SDS011;48555;50.952;-0.120;2024-01-11T01:48:48;19.38;;;11.20;;
61393;SDS011;48555;50.952;-0.120;2024-01-11T01:51:14;19.67;;;10.75;;
61393;SDS011;48555;50.952;-0.120;2024-01-11T01:53:39;19.50;;;10.90;;
61393;SDS011;48555;50.952;-0.120;2024-01-11T01:56:05;20.65;;;11.65;;
61393;SDS011;48555;50.952;-0.120;2024-01-11T01:58:33;16.42;;;9.95;;
61393;SDS011;48555;50.952;-0.120;2024-01-11T02:00:58;18.83;;;10.23;;
61393;SDS011;48555;50.952;-0.120;2024-01-11T02:03:24;19.00;;;9.55;;
61393;SDS011;48555;50.952;-0.120;2024-01-11T02:05:52;20.60;;;11.70;;
61393;SDS011;48555;50.952;-0.120;2024-01-11T02:08:19;17.67;;;10.50;;
61393;SDS011;48555;50.952;-0.120;2024-01-11T02:10:47;16.27;;;10.55;;
61393;SDS011;48555;50.952;-0.120;2024-01-11T02:13:12;18.65;;;11.10;;
61393;SDS011;48555;50.952;-0.120;2024-01-11T02:15:38;17.02;;;10.77;;
61393;SDS011;48555;50.952;-0.120;2024-01-11T02:18:04;17.15;;;10.68;;
61393;SDS011;48555;50.952;-0.120;2024-01-11T02:20:29;18.27;;;10.50;;
61393;SDS011;48555;50.952;-0.120;2024-01-11T02:22:56;17.33;;;10.93;;
61393;SDS011;48555;50.952;-0.120;2024-01-11T02:25:26;21.77;;;11.25;;
61393;SDS011;48555;50.952;-0.120;2024-01-11T02:27:51;19.15;;;10.68;;
61393;SDS011;48555;50.952;-0.120;2024-01-11T02:30:17;19.23;;;10.23;;
61393;SDS011;48555;50.952;-0.120;2024-01-11T02:32:43;18.77;;;10.88;;
61393;SDS011;48555;50.952;-0.120;2024-01-11T02:35:11;17.65;;;11.10;;
61393;SDS011;48555;50.952;-0.120;2024-01-11T02:37:38;18.90;;;10.30;;
61393;SDS011;48555;50.952;-0.120;2024-01-11T02:40:04;18.70;;;11.45;;
61393;SDS011;48555;50.952;-0.120;2024-01-11T02:42:32;19.67;;;11.05;;
61393;SDS011;48555;50.952;-0.120;2024-01-11T02:44:57;20.33;;;12.10;;
61393;SDS011;48555;50.952;-0.120;2024-01-11T02:47:23;21.63;;;11.27;;
61393;SDS011;48555;50.952;-0.120;2024-01-11T02:49:48;18.10;;;10.82;;
61393;SDS011;48555;50.952;-0.120;2024-01-11T02:52:13;16.48;;;10.57;;
61393;SDS011;48555;50.952;-0.120;2024-01-11T02:54:38;19.95;;;11.10;;
61393;SDS011;48555;50.952;-0.120;2024-01-11T02:57:04;17.35;;;10.85;;
61393;SDS011;48555;50.952;-0.120;2024-01-11T02:59:29;18.00;;;10.48;;
61393;SDS011;48555;50.952;-0.120;2024-01-11T03:01:54;17.55;;;10.70;;
61393;SDS011;48555;50.952;-0.120;2024-01-11T03:04:20;20.83;;;11.35;;
61393;SDS011;48555;50.952;-0.120;2024-01-11T03:06:46;18.05;;;10.13;;
61393;SDS011;48555;50.952;-0.120;2024-01-11T03:09:11;15.82;;;10.30;;
61393;SDS011;48555;50.952;-0.120;2024-01-11T03:11:36;19.17;;;11.10;;
61393;SDS011;48555;50.952;-0.120;2024-01-11T03:14:02;17.00;;;10.35;;
61393;SDS011;48555;50.952;-0.120;2024-01-11T03:16:28;20.02;;;10.90;;
61393;SDS011;48555;50.952;-0.120;2024-01-11T03:18:53;18.50;;;10.15;;
61393;SDS011;48555;50.952;-0.120;2024-01-11T03:21:18;20.85;;;10.65;;
61393;SDS011;48555;50.952;-0.120;2024-01-11T03:23:44;17.17;;;11.27;;
61393;SDS011;48555;50.952;-0.120;2024-01-11T03:26:16;21.38;;;10.52;;
61393;SDS011;48555;50.952;-0.120;2024-01-11T03:28:42;17.17;;;9.85;;
61393;SDS011;48555;50.952;-0.120;2024-01-11T03:31:08;16.90;;;9.93;;
61393;SDS011;48555;50.952;-0.120;2024-01-11T03:33:34;17.90;;;10.95;;
61393;SDS011;48555;50.952;-0.120;2024-01-11T03:36:00;17.60;;;10.05;;
61393;SDS011;48555;50.952;-0.120;2024-01-11T03:38:31;18.17;;;11.80;;
61393;SDS011;48555;50.952;-0.120;2024-01-11T03:40:56;19.83;;;11.02;;
61393;SDS011;48555;50.952;-0.120;2024-01-11T03:43:21;20.92;;;11.38;;
61393;SDS011;48555;50.952;-0.120;2024-01-11T03:45:47;22.42;;;12.10;;
61393;SDS011;48555;50.952;-0.120;2024-01-11T03:48:12;15.23;;;10.15;;
61393;SDS011;48555;50.952;-0.120;2024-01-11T03:50:37;17.48;;;10.43;;
61393;SDS011;48555;50.952;-0.120;2024-01-11T03:53:02;17.67;;;10.10;;
61393;SDS011;48555;50.952;-0.120;2024-01-11T03:55:29;19.27;;;10.23;;
61393;SDS011;48555;50.952;-0.120;2024-01-11T03:57:54;17.33;;;10.20;;
61393;SDS011;48555;50.952;-0.120;2024-01-11T04:00:20;20.13;;;10.77;;
61393;SDS011;48555;50.952;-0.120;2024-01-11T04:02:45;17.30;;;10.00;;
61393;SDS011;48555;50.952;-0.120;2024-01-11T04:05:11;17.30;;;10.32;;
61393;SDS011;48555;50.952;-0.120;2024-01-11T04:07:36;18.33;;;10.35;;
61393;SDS011;48555;50.952;-0.120;2024-01-11T04:10:01;18.75;;;11.18;;
61393;SDS011;48555;50.952;-0.120;2024-01-11T04:12:27;17.80;;;11.27;;
61393;SDS011;48555;50.952;-0.120;2024-01-11T04:14:52;19.08;;;11.32;;
61393;SDS011;48555;50.952;-0.120;2024-01-11T04:17:17;16.13;;;10.43;;
61393;SDS011;48555;50.952;-0.120;2024-01-11T04:19:43;18.00;;;11.25;;
61393;SDS011;48555;50.952;-0.120;2024-01-11T04:22:08;19.30;;;11.52;;
61393;SDS011;48555;50.952;-0.120;2024-01-11T04:24:33;19.13;;;11.75;;
61393;SDS011;48555;50.952;-0.120;2024-01-11T04:26:59;20.98;;;11.63;;
61393;SDS011;48555;50.952;-0.120;2024-01-11T04:29:24;18.45;;;11.20;;
61393;SDS011;48555;50.952;-0.120;2024-01-11T04:31:49;20.77;;;11.57;;
61393;SDS011;48555;50.952;-0.120;2024-01-11T04:34:15;18.23;;;10.77;;
61393;SDS011;48555;50.952;-0.120;2024-01-11T04:36:41;17.85;;;10.20;;
61393;SDS011;48555;50.952;-0.120;2024-01-11T04:39:06;18.48;;;11.50;;
61393;SDS011;48555;50.952;-0.120;2024-01-11T04:41:33;20.27;;;10.52;;
61393;SDS011;48555;50.952;-0.120;2024-01-11T04:44:01;17.85;;;11.25;;
61393;SDS011;48555;50.952;-0.120;2024-01-11T04:46:26;18.45;;;11.00;;
61393;SDS011;48555;50.952;-0.120;2024-01-11T04:48:51;19.45;;;10.98;;
61393;SDS011;48555;50.952;-0.120;2024-01-11T04:51:17;20.17;;;11.45;;
61393;SDS011;48555;50.952;-0.120;2024-01-11T04:53:43;19.52;;;11.27;;
61393;SDS011;48555;50.952;-0.120;2024-01-11T04:56:10;16.88;;;11.48;;
61393;SDS011;48555;50.952;-0.120;2024-01-11T04:58:38;21.83;;;11.63;;
61393;SDS011;48555;50.952;-0.120;2024-01-11T05:01:05;16.63;;;10.30;;
61393;SDS011;48555;50.952;-0.120;2024-01-11T05:03:30;20.27;;;11.65;;
61393;SDS011;48555;50.952;-0.120;2024-01-11T05:05:56;20.77;;;11.27;;
61393;SDS011;48555;50.952;-0.120;2024-01-11T05:08:22;20.98;;;11.68;;
61393;SDS011;48555;50.952;-0.120;2024-01-11T05:10:48;19.23;;;11.85;;
61393;SDS011;48555;50.952;-0.120;2024-01-11T05:13:13;17.15;;;10.50;;
61393;SDS011;48555;50.952;-0.120;2024-01-11T05:15:38;18.52;;;11.18;;
61393;SDS011;48555;50.952;-0.120;2024-01-11T05:18:04;21.70;;;11.85;;
61393;SDS011;48555;50.952;-0.120;2024-01-11T05:20:29;19.17;;;12.07;;
61393;SDS011;48555;50.952;-0.120;2024-01-11T05:22:54;19.75;;;12.32;;
61393;SDS011;48555;50.952;-0.120;2024-01-11T05:25:20;19.90;;;11.60;;
61393;SDS011;48555;50.952;-0.120;2024-01-11T05:27:45;20.00;;;12.38;;
61393;SDS011;48555;50.952;-0.120;2024-01-11T05:30:10;21.83;;;11.82;;
61393;SDS011;48555;50.952;-0.120;2024-01-11T05:32:36;21.20;;;12.48;;
61393;SDS011;48555;50.952;-0.120;2024-01-11T05:35:01;21.52;;;11.07;;
61393;SDS011;48555;50.952;-0.120;2024-01-11T05:37:27;20.40;;;12.25;;
61393;SDS011;48555;50.952;-0.120;2024-01-11T05:39:52;19.27;;;11.68;;
61393;SDS011;48555;50.952;-0.120;2024-01-11T05:42:19;19.80;;;11.75;;
61393;SDS011;48555;50.952;-0.120;2024-01-11T05:44:44;21.08;;;11.63;;
61393;SDS011;48555;50.952;-0.120;2024-01-11T05:47:09;19.60;;;10.68;;
61393;SDS011;48555;50.952;-0.120;2024-01-11T05:49:35;18.88;;;10.75;;
61393;SDS011;48555;50.952;-0.120;2024-01-11T05:52:00;18.98;;;11.50;;
61393;SDS011;48555;50.952;-0.120;2024-01-11T05:54:26;19.25;;;11.50;;
61393;SDS011;48555;50.952;-0.120;2024-01-11T05:56:53;20.55;;;11.48;;
61393;SDS011;48555;50.952;-0.120;2024-01-11T05:59:21;18.58;;;10.95;;
61393;SDS011;48555;50.952;-0.120;2024-01-11T06:01:46;21.45;;;11.75;;
61393;SDS011;48555;50.952;-0.120;2024-01-11T06:04:12;19.45;;;11.93;;
61393;SDS011;48555;50.952;-0.120;2024-01-11T06:06:37;18.73;;;10.95;;
61393;SDS011;48555;50.952;-0.120;2024-01-11T06:09:02;20.88;;;11.80;;
61393;SDS011;48555;50.952;-0.120;2024-01-11T06:11:29;21.17;;;11.38;;
61393;SDS011;48555;50.952;-0.120;2024-01-11T06:13:55;17.88;;;10.52;;
61393;SDS011;48555;50.952;-0.120;2024-01-11T06:16:20;19.60;;;11.10;;
61393;SDS011;48555;50.952;-0.120;2024-01-11T06:18:46;19.92;;;11.15;;
61393;SDS011;48555;50.952;-0.120;2024-01-11T06:21:11;21.88;;;10.70;;
61393;SDS011;48555;50.952;-0.120;2024-01-11T06:23:36;19.95;;;11.05;;
61393;SDS011;48555;50.952;-0.120;2024-01-11T06:26:02;20.58;;;10.68;;
61393;SDS011;48555;50.952;-0.120;2024-01-11T06:28:28;19.92;;;10.65;;
61393;SDS011;48555;50.952;-0.120;2024-01-11T06:30:53;19.08;;;10.65;;
61393;SDS011;48555;50.952;-0.120;2024-01-11T06:33:18;18.17;;;11.30;;
61393;SDS011;48555;50.952;-0.120;2024-01-11T06:35:45;17.08;;;9.50;;
61393;SDS011;48555;50.952;-0.120;2024-01-11T06:38:10;21.17;;;10.00;;
61393;SDS011;48555;50.952;-0.120;2024-01-11T06:40:36;14.27;;;8.93;;
61393;SDS011;48555;50.952;-0.120;2024-01-11T06:43:01;15.63;;;9.93;;
61393;SDS011;48555;50.952;-0.120;2024-01-11T06:45:26;19.45;;;11.48;;
61393;SDS011;48555;50.952;-0.120;2024-01-11T06:47:52;17.88;;;10.38;;
61393;SDS011;48555;50.952;-0.120;2024-01-11T06:50:17;21.05;;;11.25;;
61393;SDS011;48555;50.952;-0.120;2024-01-11T06:52:42;16.98;;;9.90;;
61393;SDS011;48555;50.952;-0.120;2024-01-11T06:55:08;16.33;;;10.30;;
61393;SDS011;48555;50.952;-0.120;2024-01-11T06:57:33;20.02;;;11.13;;
61393;SDS011;48555;50.952;-0.120;2024-01-11T06:59:59;18.20;;;11.05;;
61393;SDS011;48555;50.952;-0.120;2024-01-11T07:02:24;18.65;;;11.30;;
61393;SDS011;48555;50.952;-0.120;2024-01-11T07:04:50;18.88;;;10.27;;
61393;SDS011;48555;50.952;-0.120;2024-01-11T07:07:15;20.88;;;10.05;;
61393;SDS011;48555;50.952;-0.120;2024-01-11T07:09:40;15.40;;;9.73;;
61393;SDS011;48555;50.952;-0.120;2024-01-11T07:12:06;16.50;;;9.45;;
61393;SDS011;48555;50.952;-0.120;2024-01-11T07:14:31;17.02;;;9.98;;
61393;SDS011;48555;50.952;-0.120;2024-01-11T07:16:57;18.08;;;10.02;;
61393;SDS011;48555;50.952;-0.120;2024-01-11T07:19:22;17.73;;;9.43;;
61393;SDS011;48555;50.952;-0.120;2024-01-11T07:21:47;16.40;;;10.20;;
61393;SDS011;48555;50.952;-0.120;2024-01-11T07:24:13;18.90;;;10.75;;
61393;SDS011;48555;50.952;-0.120;2024-01-11T07:26:38;18.05;;;10.15;;
61393;SDS011;48555;50.952;-0.120;2024-01-11T07:29:04;18.48;;;9.55;;
61393;SDS011;48555;50.952;-0.120;2024-01-11T07:31:29;20.50;;;10.70;;
61393;SDS011;48555;50.952;-0.120;2024-01-11T07:33:55;20.80;;;11.38;;
61393;SDS011;48555;50.952;-0.120;2024-01-11T07:36:20;21.55;;;10.85;;
61393;SDS011;48555;50.952;-0.120;2024-01-11T07:38:45;22.80;;;10.98;;
61393;SDS011;48555;50.952;-0.120;2024-01-11T07:41:10;18.30;;;10.02;;
61393;SDS011;48555;50.952;-0.120;2024-01-11T07:43:36;19.27;;;10.55;;
61393;SDS011;48555;50.952;-0.120;2024-01-11T07:46:02;17.25;;;8.98;;
61393;SDS011;48555;50.952;-0.120;2024-01-11T07:48:28;21.08;;;10.32;;
61393;SDS011;48555;50.952;-0.120;2024-01-11T07:50:54;17.40;;;9.63;;
61393;SDS011;48555;50.952;-0.120;2024-01-11T07:53:19;19.17;;;10.60;;
61393;SDS011;48555;50.952;-0.120;2024-01-11T07:55:45;23.15;;;11.07;;
61393;SDS011;48555;50.952;-0.120;2024-01-11T07:58:12;17.30;;;9.60;;
61393;SDS011;48555;50.952;-0.120;2024-01-11T08:00:38;17.23;;;8.73;;
61393;SDS011;48555;50.952;-0.120;2024-01-11T08:03:04;16.88;;;9.48;;
61393;SDS011;48555;50.952;-0.120;2024-01-11T08:05:29;20.80;;;10.05;;
61393;SDS011;48555;50.952;-0.120;2024-01-11T08:07:54;19.25;;;10.57;;
61393;SDS011;48555;50.952;-0.120;2024-01-11T08:10:20;18.05;;;10.52;;
61393;SDS011;48555;50.952;-0.120;2024-01-11T08:12:45;18.58;;;10.48;;
61393;SDS011;48555;50.952;-0.120;2024-01-11T08:15:10;16.23;;;9.88;;
61393;SDS011;48555;50.952;-0.120;2024-01-11T08:17:37;19.00;;;10.10;;
61393;SDS011;48555;50.952;-0.120;2024-01-11T08:20:04;16.25;;;9.77;;
61393;SDS011;48555;50.952;-0.120;2024-01-11T08:22:32;16.67;;;9.88;;
61393;SDS011;48555;50.952;-0.120;2024-01-11T08:25:00;16.85;;;9.52;;
61393;SDS011;48555;50.952;-0.120;2024-01-11T08:27:25;20.50;;;9.45;;
61393;SDS011;48555;50.952;-0.120;2024-01-11T08:29:50;17.33;;;7.75;;
61393;SDS011;48555;50.952;-0.120;2024-01-11T08:32:16;19.15;;;9.98;;
61393;SDS011;48555;50.952;-0.120;2024-01-11T08:34:41;15.57;;;8.93;;
61393;SDS011;48555;50.952;-0.120;2024-01-11T08:37:07;15.93;;;8.57;;
61393;SDS011;48555;50.952;-0.120;2024-01-11T08:39:32;18.35;;;9.90;;
61393;SDS011;48555;50.952;-0.120;2024-01-11T08:41:58;14.18;;;8.75;;
61393;SDS011;48555;50.952;-0.120;2024-01-11T08:44:24;15.40;;;8.93;;
61393;SDS011;48555;50.952;-0.120;2024-01-11T08:46:49;18.10;;;9.50;;
61393;SDS011;48555;50.952;-0.120;2024-01-11T08:49:14;16.67;;;10.30;;
61393;SDS011;48555;50.952;-0.120;2024-01-11T08:51:40;20.02;;;9.88;;
61393;SDS011;48555;50.952;-0.120;2024-01-11T08:54:05;16.52;;;9.35;;
61393;SDS011;48555;50.952;-0.120;2024-01-11T08:56:33;17.23;;;10.25;;
61393;SDS011;48555;50.952;-0.120;2024-01-11T08:58:59;17.25;;;9.60;;
61393;SDS011;48555;50.952;-0.120;2024-01-11T09:01:24;19.33;;;9.65;;
61393;SDS011;48555;50.952;-0.120;2024-01-11T09:03:50;15.13;;;8.75;;
61393;SDS011;48555;50.952;-0.120;2024-01-11T09:06:15;17.60;;;9.32;;
61393;SDS011;48555;50.952;-0.120;2024-01-11T09:08:40;16.75;;;8.90;;
61393;SDS011;48555;50.952;-0.120;2024-01-11T09:11:08;18.10;;;9.73;;
61393;SDS011;48555;50.952;-0.120;2024-01-11T09:13:35;17.38;;;9.68;;
61393;SDS011;48555;50.952;-0.120;2024-01-11T09:16:01;16.85;;;9.80;;
61393;SDS011;48555;50.952;-0.120;2024-01-11T09:18:27;17.98;;;10.75;;
61393;SDS011;48555;50.952;-0.120;2024-01-11T09:20:52;20.17;;;10.40;;
61393;SDS011;48555;50.952;-0.120;2024-01-11T09:23:17;17.90;;;10.38;;
61393;SDS011;48555;50.952;-0.120;2024-01-11T09:25:43;20.50;;;11.30;;
61393;SDS011;48555;50.952;-0.120;2024-01-11T09:28:09;22.33;;;11.90;;
61393;SDS011;48555;50.952;-0.120;2024-01-11T09:30:34;19.75;;;11.35;;
61393;SDS011;48555;50.952;-0.120;2024-01-11T09:32:59;24.40;;;12.98;;
61393;SDS011;48555;50.952;-0.120;2024-01-11T09:35:26;21.35;;;11.55;;
61393;SDS011;48555;50.952;-0.120;2024-01-11T09:37:51;18.08;;;10.18;;
61393;SDS011;48555;50.952;-0.120;2024-01-11T09:40:17;22.95;;;11.00;;
61393;SDS011;48555;50.952;-0.120;2024-01-11T09:42:42;22.05;;;11.85;;
61393;SDS011;48555;50.952;-0.120;2024-01-11T09:45:14;23.02;;;12.45;;
61393;SDS011;48555;50.952;-0.120;2024-01-11T09:47:41;20.65;;;11.48;;
61393;SDS011;48555;50.952;-0.120;2024-01-11T09:50:09;23.08;;;11.43;;
61393;SDS011;48555;50.952;-0.120;2024-01-11T09:52:35;20.75;;;11.85;;
61393;SDS011;48555;50.952;-0.120;2024-01-11T09:55:01;22.90;;;11.32;;
61393;SDS011;48555;50.952;-0.120;2024-01-11T09:57:31;22.65;;;12.20;;
61393;SDS011;48555;50.952;-0.120;2024-01-11T09:59:58;22.45;;;11.27;;
61393;SDS011;48555;50.952;-0.120;2024-01-11T10:02:23;20.02;;;11.40;;
61393;SDS011;48555;50.952;-0.120;2024-01-11T10:04:51;19.15;;;10.95;;
61393;SDS011;48555;50.952;-0.120;2024-01-11T10:07:18;19.73;;;11.32;;
61393;SDS011;48555;50.952;-0.120;2024-01-11T10:09:46;22.08;;;10.93;;
61393;SDS011;48555;50.952;-0.120;2024-01-11T10:12:12;20.38;;;11.25;;
61393;SDS011;48555;50.952;-0.120;2024-01-11T10:14:37;22.83;;;10.23;;
61393;SDS011;48555;50.952;-0.120;2024-01-11T10:17:03;19.90;;;9.90;;
61393;SDS011;48555;50.952;-0.120;2024-01-11T10:19:29;19.33;;;9.90;;
61393;SDS011;48555;50.952;-0.120;2024-01-11T10:21:54;17.73;;;9.45;;
61393;SDS011;48555;50.952;-0.120;2024-01-11T10:24:20;15.88;;;8.77;;
61393;SDS011;48555;50.952;-0.120;2024-01-11T10:26:46;18.73;;;9.82;;
61393;SDS011;48555;50.952;-0.120;2024-01-11T10:29:12;21.55;;;9.45;;
61393;SDS011;48555;50.952;-0.120;2024-01-11T10:31:38;18.75;;;8.15;;
61393;SDS011;48555;50.952;-0.120;2024-01-11T10:34:04;13.88;;;7.80;;
61393;SDS011;48555;50.952;-0.120;2024-01-11T10:36:31;19.30;;;9.05;;
61393;SDS011;48555;50.952;-0.120;2024-01-11T10:38:57;17.40;;;8.20;;
61393;SDS011;48555;50.952;-0.120;2024-01-11T10:41:24;13.00;;;7.53;;
61393;SDS011;48555;50.952;-0.120;2024-01-11T10:43:51;17.58;;;8.07;;
61393;SDS011;48555;50.952;-0.120;2024-01-11T10:46:18;13.90;;;7.80;;
61393;SDS011;48555;50.952;-0.120;2024-01-11T10:48:51;14.52;;;7.28;;
61393;SDS011;48555;50.952;-0.120;2024-01-11T10:51:20;15.05;;;8.43;;
61393;SDS011;48555;50.952;-0.120;2024-01-11T10:53:49;15.75;;;8.50;;
61393;SDS011;48555;50.952;-0.120;2024-01-11T10:56:15;18.17;;;8.43;;
61393;SDS011;48555;50.952;-0.120;2024-01-11T10:58:42;16.73;;;7.72;;
61393;SDS011;48555;50.952;-0.120;2024-01-11T11:01:08;13.70;;;7.93;;
61393;SDS011;48555;50.952;-0.120;2024-01-11T11:03:36;17.17;;;8.00;;
61393;SDS011;48555;50.952;-0.120;2024-01-11T11:06:02;17.65;;;7.63;;
61393;SDS011;48555;50.952;-0.120;2024-01-11T11:08:30;14.73;;;6.75;;
61393;SDS011;48555;50.952;-0.120;2024-01-11T11:10:57;16.55;;;7.03;;
61393;SDS011;48555;50.952;-0.120;2024-01-11T11:13:23;16.38;;;7.40;;
61393;SDS011;48555;50.952;-0.120;2024-01-11T11:15:49;13.88;;;6.95;;
61393;SDS011;48555;50.952;-0.120;2024-01-11T11:18:15;14.48;;;7.03;;
61393;SDS011;48555;50.952;-0.120;2024-01-11T11:20:42;13.88;;;6.95;;
61393;SDS011;48555;50.952;-0.120;2024-01-11T11:23:08;10.68;;;6.05;;
61393;SDS011;48555;50.952;-0.120;2024-01-11T11:25:35;12.02;;;5.88;;
61393;SDS011;48555;50.952;-0.120;2024-01-11T11:28:01;13.23;;;6.82;;
61393;SDS011;48555;50.952;-0.120;2024-01-11T11:30:31;13.23;;;6.10;;
61393;SDS011;48555;50.952;-0.120;2024-01-11T11:32:56;10.63;;;5.78;;
61393;SDS011;48555;50.952;-0.120;2024-01-11T11:35:23;13.50;;;6.07;;
61393;SDS011;48555;50.952;-0.120;2024-01-11T11:37:55;10.30;;;5.00;;
61393;SDS011;48555;50.952;-0.120;2024-01-11T11:40:21;13.43;;;5.57;;
61393;SDS011;48555;50.952;-0.120;2024-01-11T11:42:53;8.40;;;4.22;;
61393;SDS011;48555;50.952;-0.120;2024-01-11T11:45:25;9.35;;;4.50;;
61393;SDS011;48555;50.952;-0.120;2024-01-11T11:47:51;9.40;;;4.10;;
61393;SDS011;48555;50.952;-0.120;2024-01-11T11:50:16;13.20;;;4.30;;
61393;SDS011;48555;50.952;-0.120;2024-01-11T11:52:43;8.20;;;3.42;;
61393;SDS011;48555;50.952;-0.120;2024-01-11T11:55:10;9.13;;;4.05;;
61393;SDS011;48555;50.952;-0.120;2024-01-11T11:57:36;10.18;;;3.60;;
61393;SDS011;48555;50.952;-0.120;2024-01-11T12:00:02;10.25;;;4.40;;
61393;SDS011;48555;50.952;-0.120;2024-01-11T12:02:31;10.50;;;4.72;;
61393;SDS011;48555;50.952;-0.120;2024-01-11T12:04:57;10.00;;;3.85;;
61393;SDS011;48555;50.952;-0.120;2024-01-11T12:07:23;9.20;;;3.75;;
61393;SDS011;48555;50.952;-0.120;2024-01-11T12:09:49;7.72;;;3.63;;
61393;SDS011;48555;50.952;-0.120;2024-01-11T12:12:16;7.20;;;3.45;;
61393;SDS011;48555;50.952;-0.120;2024-01-11T12:14:42;7.35;;;3.60;;
61393;SDS011;48555;50.952;-0.120;2024-01-11T12:17:08;8.18;;;3.22;;
61393;SDS011;48555;50.952;-0.120;2024-01-11T12:19:34;7.10;;;3.47;;
61393;SDS011;48555;50.952;-0.120;2024-01-11T12:21:59;9.63;;;3.80;;
61393;SDS011;48555;50.952;-0.120;2024-01-11T12:24:25;7.45;;;3.80;;
61393;SDS011;48555;50.952;-0.120;2024-01-11T12:26:50;8.07;;;3.53;;
61393;SDS011;48555;50.952;-0.120;2024-01-11T12:29:19;8.90;;;3.33;;
61393;SDS011;48555;50.952;-0.120;2024-01-11T12:31:45;6.80;;;3.45;;
61393;SDS011;48555;50.952;-0.120;2024-01-11T12:34:14;14.30;;;3.58;;
61393;SDS011;48555;50.952;-0.120;2024-01-11T12:36:40;9.02;;;3.75;;
61393;SDS011;48555;50.952;-0.120;2024-01-11T12:39:06;7.97;;;3.72;;
61393;SDS011;48555;50.952;-0.120;2024-01-11T12:41:33;7.30;;;3.70;;
61393;SDS011;48555;50.952;-0.120;2024-01-11T12:43:59;8.30;;;3.90;;
61393;SDS011;48555;50.952;-0.120;2024-01-11T12:46:25;5.45;;;3.08;;
61393;SDS011;48555;50.952;-0.120;2024-01-11T12:48:50;5.88;;;2.72;;
61393;SDS011;48555;50.952;-0.120;2024-01-11T12:51:19;8.93;;;3.63;;
61393;SDS011;48555;50.952;-0.120;2024-01-11T12:53:45;11.40;;;4.43;;
61393;SDS011;48555;50.952;-0.120;2024-01-11T12:56:11;12.57;;;4.78;;
61393;SDS011;48555;50.952;-0.120;2024-01-11T12:58:40;11.82;;;5.50;;
61393;SDS011;48555;50.952;-0.120;2024-01-11T13:01:05;10.48;;;4.35;;
61393;SDS011;48555;50.952;-0.120;2024-01-11T13:03:35;8.48;;;3.83;;
61393;SDS011;48555;50.952;-0.120;2024-01-11T13:06:03;9.10;;;3.65;;
61393;SDS011;48555;50.952;-0.120;2024-01-11T13:08:30;8.00;;;3.22;;
61393;SDS011;48555;50.952;-0.120;2024-01-11T13:13:30;8.05;;;3.22;;
61393;SDS011;48555;50.952;-0.120;2024-01-11T13:15:55;6.60;;;2.97;;
61393;SDS011;48555;50.952;-0.120;2024-01-11T13:18:21;7.15;;;3.20;;
61393;SDS011;48555;50.952;-0.120;2024-01-11T13:20:46;9.45;;;3.47;;
61393;SDS011;48555;50.952;-0.120;2024-01-11T13:23:19;8.70;;;3.55;;
61393;SDS011;48555;50.952;-0.120;2024-01-11T13:25:46;7.90;;;3.60;;
61393;SDS011;48555;50.952;-0.120;2024-01-11T13:28:12;10.73;;;3.70;;
61393;SDS011;48555;50.952;-0.120;2024-01-11T13:30:39;6.93;;;3.03;;
61393;SDS011;48555;50.952;-0.120;2024-01-11T13:33:05;7.05;;;3.08;;
61393;SDS011;48555;50.952;-0.120;2024-01-11T13:35:32;7.53;;;2.53;;
61393;SDS011;48555;50.952;-0.120;2024-01-11T13:37:59;5.65;;;2.78;;
61393;SDS011;48555;50.952;-0.120;2024-01-11T13:40:24;9.70;;;3.60;;
61393;SDS011;48555;50.952;-0.120;2024-01-11T13:42:50;6.65;;;2.92;;
61393;SDS011;48555;50.952;-0.120;2024-01-11T13:45:15;5.78;;;2.83;;
61393;SDS011;48555;50.952;-0.120;2024-01-11T13:47:41;6.65;;;2.80;;
61393;SDS011;48555;50.952;-0.120;2024-01-11T13:50:06;4.95;;;2.92;;
61393;SDS011;48555;50.952;-0.120;2024-01-11T13:52:32;5.38;;;2.30;;
61393;SDS011;48555;50.952;-0.120;2024-01-11T13:54:57;8.00;;;2.50;;
61393;SDS011;48555;50.952;-0.120;2024-01-11T13:57:23;7.05;;;2.50;;
61393;SDS011;48555;50.952;-0.120;2024-01-11T13:59:48;3.08;;;1.92;;
61393;SDS011;48555;50.952;-0.120;2024-01-11T14:02:14;5.22;;;2.50;;
61393;SDS011;48555;50.952;-0.120;2024-01-11T14:04:39;7.68;;;2.55;;
61393;SDS011;48555;50.952;-0.120;2024-01-11T14:07:05;5.00;;;2.55;;
61393;SDS011;48555;50.952;-0.120;2024-01-11T14:09:31;6.28;;;2.45;;
61393;SDS011;48555;50.952;-0.120;2024-01-11T14:11:56;3.47;;;2.10;;